Time;durP1;ratioP1;P1;durP2;ratioP2;P2;SDS_P1;SDS_P2;PMS_P1;PMS_P2;Temp;Humidity;BMP_temperature;BMP_pressure;BME280_temperature;BME280_humidity;BME280_pressure;Samples;Min_cycle;Max_cycle;Signal;HPM_P1;HPM_P2
2022/07/31 00:00:20;;;;;;;5.18;3.10;;;18.90;99.90;;;;;;5013228;28;20073;-90
2022/07/31 00:02:46;;;;;;;5.88;3.28;;;18.90;99.90;;;;;;5014101;28;20052;-91
2022/07/31 00:05:12;;;;;;;6.35;3.15;;;18.70;99.90;;;;;;5036671;28;20069;-91
2022/07/31 00:07:38;;;;;;;6.85;3.63;;;18.80;99.90;;;;;;4994244;28;20037;-90
2022/07/31 00:10:05;;;;;;;7.22;3.78;;;18.70;99.90;;;;;;5002416;28;20060;-90
2022/07/31 00:12:31;;;;;;;6.18;3.60;;;18.70;99.90;;;;;;5003511;28;20340;-91
2022/07/31 00:14:56;;;;;;;8.55;3.92;;;18.70;99.90;;;;;;5037777;28;20045;-89
2022/07/31 00:17:22;;;;;;;6.03;3.60;;;18.60;99.90;;;;;;5017082;28;20025;-90
2022/07/31 00:19:48;;;;;;;6.65;3.38;;;18.60;99.90;;;;;;5014219;28;20037;-90
2022/07/31 00:22:13;;;;;;;7.45;3.85;;;18.60;99.90;;;;;;4990370;28;20524;-91
2022/07/31 00:24:39;;;;;;;7.95;3.80;;;18.60;99.90;;;;;;5033798;28;20042;-90
2022/07/31 00:27:05;;;;;;;7.32;4.20;;;18.60;99.90;;;;;;4996054;28;20394;-90
2022/07/31 00:29:31;;;;;;;8.18;4.13;;;18.60;99.90;;;;;;5015322;28;20046;-91
2022/07/31 00:31:57;;;;;;;7.75;4.80;;;18.60;99.90;;;;;;5015330;28;20041;-91
2022/07/31 00:34:22;;;;;;;7.63;4.90;;;18.60;99.90;;;;;;5035467;28;20053;-91
2022/07/31 00:36:48;;;;;;;7.90;4.90;;;18.50;99.90;;;;;;4993177;28;20045;-91
2022/07/31 00:39:14;;;;;;;8.27;5.00;;;18.50;99.90;;;;;;5010781;28;20081;-90
2022/07/31 00:41:42;;;;;;;7.43;4.80;;;18.50;99.90;;;;;;5016158;28;20091;-90
2022/07/31 00:44:08;;;;;;;8.88;4.60;;;18.50;99.90;;;;;;5038217;28;20054;-91
2022/07/31 00:46:35;;;;;;;8.07;4.60;;;18.50;99.90;;;;;;5018575;28;20052;-91
2022/07/31 00:49:01;;;;;;;7.70;4.22;;;18.60;99.90;;;;;;4996403;28;20041;-91
2022/07/31 00:51:27;;;;;;;7.60;4.38;;;18.50;99.90;;;;;;5012622;28;20048;-91
2022/07/31 00:53:53;;;;;;;8.80;4.35;;;18.50;99.90;;;;;;5006547;28;20124;-92
2022/07/31 00:56:19;;;;;;;7.13;4.47;;;18.40;99.90;;;;;;4995497;28;20116;-91
2022/07/31 00:58:44;;;;;;;8.35;4.40;;;18.40;99.90;;;;;;4994021;28;20465;-91
2022/07/31 01:01:10;;;;;;;7.68;4.28;;;18.30;99.90;;;;;;5016624;28;20494;-90
2022/07/31 01:03:35;;;;;;;7.38;4.60;;;18.30;99.90;;;;;;4994361;28;20037;-91
2022/07/31 01:06:02;;;;;;;7.53;4.80;;;18.40;99.90;;;;;;5011501;28;20084;-91
2022/07/31 01:08:28;;;;;;;8.60;4.53;;;18.30;99.90;;;;;;5017471;28;20045;-91
2022/07/31 01:11:02;;;;;;;6.97;4.38;;;18.30;99.90;;;;;;4996250;28;20065;-91
2022/07/31 01:13:59;;;;;;;7.40;4.50;;;18.30;99.90;;;;;;5005912;28;20048;-92
2022/07/31 01:16:29;;;;;;;7.85;4.60;;;18.30;99.90;;;;;;4995884;28;20550;-91
2022/07/31 01:18:56;;;;;;;8.55;4.70;;;18.20;99.90;;;;;;5014765;28;20197;-92
2022/07/31 01:21:48;;;;;;;7.63;4.47;;;18.20;99.90;;;;;;5020624;28;20096;-91
2022/07/31 01:24:17;;;;;;;8.45;4.88;;;18.20;99.90;;;;;;4994032;28;20045;-90
2022/07/31 01:26:55;;;;;;;7.75;4.35;;;18.10;99.90;;;;;;5009591;28;20578;-91
2022/07/31 01:29:45;;;;;;;7.80;4.57;;;18.20;99.90;;;;;;4998932;28;20405;-91
2022/07/31 01:32:17;;;;;;;7.35;4.25;;;18.20;99.90;;;;;;4995465;28;20497;-90
2022/07/31 01:34:51;;;;;;;8.38;4.43;;;18.20;99.90;;;;;;5009859;28;20050;-91
2022/07/31 01:37:23;;;;;;;8.65;4.55;;;18.20;99.90;;;;;;5014966;28;20053;-91
2022/07/31 01:40:02;;;;;;;7.32;4.80;;;18.20;99.90;;;;;;5013724;28;20560;-90
2022/07/31 01:42:29;;;;;;;7.57;4.32;;;18.20;99.90;;;;;;5011589;28;20068;-92
2022/07/31 01:44:58;;;;;;;8.13;4.55;;;18.20;99.90;;;;;;4987861;28;20422;-91
2022/07/31 01:47:26;;;;;;;7.88;4.60;;;18.20;99.90;;;;;;5012640;28;20121;-92
2022/07/31 01:49:54;;;;;;;7.95;5.10;;;18.20;99.90;;;;;;5010040;28;20046;-91
2022/07/31 01:52:21;;;;;;;8.63;5.35;;;18.20;99.90;;;;;;5017295;28;20087;-91
2022/07/31 01:54:48;;;;;;;7.20;4.88;;;18.20;99.90;;;;;;4987608;28;20386;-91
2022/07/31 01:57:15;;;;;;;8.48;4.90;;;18.20;99.90;;;;;;4998012;28;20055;-91
2022/07/31 01:59:41;;;;;;;8.40;5.07;;;18.20;99.90;;;;;;5008209;28;20037;-90
2022/07/31 02:02:07;;;;;;;8.15;5.38;;;18.30;99.90;;;;;;5007332;28;20034;-91
2022/07/31 02:04:35;;;;;;;8.43;5.25;;;18.30;99.90;;;;;;5020904;28;20126;-90
2022/07/31 02:07:03;;;;;;;8.57;5.13;;;18.30;99.90;;;;;;4998815;28;20037;-91
2022/07/31 02:09:30;;;;;;;7.80;5.45;;;18.30;99.90;;;;;;5008787;28;20429;-91
2022/07/31 02:11:57;;;;;;;7.88;4.90;;;18.30;99.90;;;;;;5009350;28;20063;-92
2022/07/31 02:14:23;;;;;;;8.65;4.90;;;18.30;99.90;;;;;;5008889;28;20052;-91
2022/07/31 02:16:49;;;;;;;10.57;5.32;;;18.30;99.90;;;;;;5012401;28;20357;-92
2022/07/31 02:19:16;;;;;;;8.30;5.20;;;18.20;99.90;;;;;;5002985;28;20069;-91
2022/07/31 02:21:42;;;;;;;9.27;5.30;;;18.20;99.90;;;;;;5017691;28;20436;-91
2022/07/31 02:24:08;;;;;;;8.52;5.55;;;18.20;99.90;;;;;;5012764;28;20069;-91
2022/07/31 02:26:35;;;;;;;9.50;5.22;;;18.20;99.90;;;;;;5029140;28;20142;-91
2022/07/31 02:29:02;;;;;;;8.20;4.97;;;18.10;99.90;;;;;;4988537;28;20056;-91
2022/07/31 02:31:30;;;;;;;8.35;5.25;;;18.20;99.90;;;;;;5010689;28;20042;-91
2022/07/31 02:33:56;;;;;;;8.20;5.05;;;18.20;99.90;;;;;;5013115;28;20090;-91
2022/07/31 02:36:23;;;;;;;9.23;5.30;;;18.20;99.90;;;;;;4992911;28;20485;-90
2022/07/31 02:38:50;;;;;;;8.30;4.88;;;18.20;99.90;;;;;;5028765;28;20034;-92
2022/07/31 02:41:16;;;;;;;8.07;5.20;;;18.20;99.90;;;;;;4996580;28;20073;-90
2022/07/31 02:43:43;;;;;;;9.38;5.80;;;18.20;99.90;;;;;;5011540;28;20124;-92
2022/07/31 02:46:11;;;;;;;8.07;5.38;;;18.20;99.90;;;;;;5006754;28;20065;-91
2022/07/31 02:48:37;;;;;;;8.73;5.38;;;18.20;99.90;;;;;;5005728;28;20440;-90
2022/07/31 02:51:03;;;;;;;8.35;5.90;;;18.10;99.90;;;;;;5013730;28;20064;-92
2022/07/31 02:53:29;;;;;;;8.73;5.78;;;18.10;99.90;;;;;;4996768;28;20390;-91
2022/07/31 02:55:55;;;;;;;9.38;5.82;;;18.10;99.90;;;;;;5035986;28;20041;-91
2022/07/31 02:58:21;;;;;;;7.68;4.97;;;18.10;99.90;;;;;;5012155;28;20060;-92
2022/07/31 03:00:46;;;;;;;8.60;5.20;;;18.00;99.90;;;;;;4995305;28;20045;-91
2022/07/31 03:03:12;;;;;;;8.40;5.72;;;18.10;99.90;;;;;;5039526;28;20103;-91
2022/07/31 03:05:38;;;;;;;7.57;5.35;;;18.10;99.90;;;;;;4998362;28;20128;-91
2022/07/31 03:08:04;;;;;;;9.20;5.72;;;18.10;99.90;;;;;;4985812;28;20475;-90
2022/07/31 03:10:29;;;;;;;8.82;5.57;;;18.10;99.90;;;;;;4994104;28;20025;-91
2022/07/31 03:12:56;;;;;;;8.43;5.80;;;18.10;99.90;;;;;;4994877;28;20041;-91
2022/07/31 03:15:25;;;;;;;9.20;5.90;;;18.10;99.90;;;;;;5039939;28;20103;-90
2022/07/31 03:17:52;;;;;;;10.40;6.00;;;18.10;99.90;;;;;;5005565;28;20118;-91
2022/07/31 03:20:19;;;;;;;9.63;6.28;;;18.00;99.90;;;;;;5038708;28;20513;-92
2022/07/31 03:22:45;;;;;;;10.40;6.07;;;18.00;99.90;;;;;;5006356;28;20449;-91
2022/07/31 03:25:11;;;;;;;10.77;5.93;;;18.10;99.90;;;;;;4992224;28;20049;-91
2022/07/31 03:27:36;;;;;;;9.13;6.22;;;18.10;99.90;;;;;;5006975;28;20054;-90
2022/07/31 03:30:03;;;;;;;8.52;6.07;;;18.00;99.90;;;;;;5036299;28;20143;-91
2022/07/31 03:32:29;;;;;;;9.25;5.90;;;18.00;99.90;;;;;;5020263;28;20048;-90
2022/07/31 03:34:55;;;;;;;9.63;5.80;;;18.00;99.90;;;;;;5009317;28;20042;-90
2022/07/31 03:37:21;;;;;;;8.93;5.68;;;18.00;99.90;;;;;;4996983;28;20052;-91
2022/07/31 03:39:47;;;;;;;8.55;5.38;;;18.00;99.90;;;;;;5012217;28;20479;-91
2022/07/31 03:42:13;;;;;;;8.23;5.85;;;18.00;99.90;;;;;;5036155;28;20091;-91
2022/07/31 03:44:40;;;;;;;9.85;5.97;;;18.00;99.90;;;;;;5017650;28;20416;-92
2022/07/31 03:47:06;;;;;;;8.73;6.00;;;18.00;99.90;;;;;;5034389;28;20045;-91
2022/07/31 03:49:32;;;;;;;8.27;5.68;;;18.00;99.90;;;;;;4990700;28;20037;-90
2022/07/31 03:51:58;;;;;;;8.25;5.60;;;18.00;99.90;;;;;;5029343;28;20045;-91
2022/07/31 03:54:24;;;;;;;10.88;5.88;;;17.90;99.90;;;;;;5006066;28;20042;-91
2022/07/31 03:56:52;;;;;;;8.00;5.68;;;17.90;99.90;;;;;;4997144;28;20049;-91
2022/07/31 03:59:18;;;;;;;9.10;6.07;;;17.90;99.90;;;;;;4998321;28;20050;-91
2022/07/31 04:01:45;;;;;;;8.63;6.30;;;17.90;99.90;;;;;;5014318;28;20388;-91
2022/07/31 04:04:12;;;;;;;8.90;6.40;;;17.90;99.90;;;;;;5015771;28;20541;-92
2022/07/31 04:06:39;;;;;;;8.95;6.18;;;17.90;99.90;;;;;;4995787;28;20042;-90
2022/07/31 04:09:05;;;;;;;8.98;6.15;;;18.00;99.90;;;;;;4995351;28;20041;-91
2022/07/31 04:11:30;;;;;;;9.93;6.40;;;17.90;99.90;;;;;;5009622;28;20382;-90
2022/07/31 04:13:56;;;;;;;9.35;6.50;;;17.90;99.90;;;;;;4999773;28;20045;-92
2022/07/31 04:16:22;;;;;;;8.35;6.35;;;18.00;99.90;;;;;;5020239;28;20065;-91
2022/07/31 04:18:48;;;;;;;9.23;6.60;;;18.00;99.90;;;;;;5019037;28;20041;-91
2022/07/31 04:21:13;;;;;;;8.85;5.85;;;18.00;99.90;;;;;;5043914;28;20033;-91
2022/07/31 04:23:39;;;;;;;9.05;6.00;;;18.00;99.90;;;;;;5043713;28;20551;-91
2022/07/31 04:26:04;;;;;;;9.15;5.80;;;18.00;99.90;;;;;;5015477;28;20061;-92
2022/07/31 04:28:30;;;;;;;9.30;5.88;;;18.00;99.90;;;;;;5009518;28;20076;-91
2022/07/31 04:30:56;;;;;;;10.40;5.78;;;18.00;99.90;;;;;;4991069;28;20037;-90
2022/07/31 04:33:21;;;;;;;10.30;6.03;;;18.00;99.90;;;;;;5004650;28;20113;-90
2022/07/31 04:35:47;;;;;;;9.48;6.43;;;18.00;99.90;;;;;;5036667;28;20041;-91
2022/07/31 04:38:15;;;;;;;10.35;6.18;;;18.10;99.90;;;;;;5015700;28;20071;-92
2022/07/31 04:40:41;;;;;;;9.00;6.03;;;18.10;99.90;;;;;;4999793;28;20044;-91
2022/07/31 04:43:07;;;;;;;9.00;6.03;;;18.10;99.90;;;;;;5006951;28;20037;-90
2022/07/31 04:45:32;;;;;;;7.72;5.70;;;18.10;99.90;;;;;;5010987;28;20045;-91
2022/07/31 04:47:58;;;;;;;8.02;5.55;;;18.00;99.90;;;;;;5010978;28;20048;-91
2022/07/31 04:50:24;;;;;;;8.50;6.25;;;18.00;99.90;;;;;;5019125;28;20053;-91
2022/07/31 04:52:49;;;;;;;8.00;6.05;;;18.00;99.90;;;;;;5039534;28;20033;-91
2022/07/31 04:55:15;;;;;;;8.90;6.40;;;18.00;99.90;;;;;;5012154;28;20038;-90
2022/07/31 04:57:40;;;;;;;7.78;6.28;;;18.00;99.90;;;;;;5005707;28;20049;-91
2022/07/31 05:00:08;;;;;;;9.18;6.45;;;18.00;99.90;;;;;;5006416;28;20049;-90
2022/07/31 05:02:34;;;;;;;9.77;5.85;;;18.00;99.90;;;;;;5010660;28;20072;-92
2022/07/31 05:05:00;;;;;;;8.38;6.05;;;18.00;99.90;;;;;;5013122;28;20053;-92
2022/07/31 05:07:25;;;;;;;8.40;6.20;;;18.00;99.90;;;;;;5013231;28;20041;-91
2022/07/31 05:09:51;;;;;;;10.00;6.70;;;18.00;99.90;;;;;;5032160;28;20048;-91
2022/07/31 05:12:16;;;;;;;9.75;6.05;;;18.00;99.90;;;;;;5035557;28;20081;-91
2022/07/31 05:14:42;;;;;;;8.88;5.70;;;18.10;99.90;;;;;;5030237;28;20037;-92
2022/07/31 05:17:08;;;;;;;7.50;5.40;;;18.10;99.90;;;;;;5003701;28;20029;-91
2022/07/31 05:19:33;;;;;;;8.07;5.55;;;18.10;99.90;;;;;;5025774;28;20394;-91
2022/07/31 05:21:59;;;;;;;8.55;5.88;;;18.20;99.90;;;;;;5000533;28;20034;-93
2022/07/31 05:24:25;;;;;;;8.23;5.53;;;18.20;99.90;;;;;;5004769;28;20058;-95
2022/07/31 05:26:51;;;;;;;9.13;5.88;;;18.20;99.90;;;;;;5021481;28;20050;-94
2022/07/31 05:29:16;;;;;;;9.40;6.03;;;18.30;99.90;;;;;;5030828;28;20049;-94
2022/07/31 05:31:43;;;;;;;8.35;6.00;;;18.30;99.90;;;;;;5007943;28;20037;-94
2022/07/31 05:34:08;;;;;;;8.52;5.93;;;18.40;99.90;;;;;;4994432;28;20168;-94
2022/07/31 05:36:34;;;;;;;8.30;5.75;;;18.40;99.90;;;;;;5030512;28;20132;-94
2022/07/31 05:38:59;;;;;;;8.55;5.80;;;18.50;99.90;;;;;;5028789;28;20046;-93
2022/07/31 05:41:25;;;;;;;8.35;5.13;;;18.50;99.90;;;;;;5010306;28;20390;-93
2022/07/31 05:43:51;;;;;;;7.80;5.30;;;18.50;99.90;;;;;;5009188;28;20052;-94
2022/07/31 05:46:16;;;;;;;8.77;5.65;;;18.50;99.90;;;;;;5009669;28;20060;-94
2022/07/31 05:48:43;;;;;;;9.00;6.15;;;18.60;99.90;;;;;;5022153;28;20046;-95
2022/07/31 05:51:11;;;;;;;8.70;6.15;;;18.60;99.90;;;;;;5010756;28;20049;-94
2022/07/31 05:53:37;;;;;;;8.68;6.35;;;18.70;99.90;;;;;;5003126;28;20046;-93
2022/07/31 05:56:04;;;;;;;8.98;6.95;;;18.70;99.90;;;;;;5011892;28;20601;-95
2022/07/31 05:58:30;;;;;;;8.75;6.88;;;18.70;99.90;;;;;;5013562;28;20021;-94
2022/07/31 06:00:55;;;;;;;9.15;6.70;;;18.70;99.90;;;;;;5028167;28;20043;-94
2022/07/31 06:03:28;;;;;;;8.77;6.35;;;18.70;99.90;;;;;;4989214;28;20050;-94
2022/07/31 06:05:54;;;;;;;9.55;6.78;;;18.80;99.90;;;;;;5000938;28;20746;-94
2022/07/31 06:08:20;;;;;;;9.30;6.85;;;18.70;99.90;;;;;;4991005;28;20081;-93
2022/07/31 06:10:45;;;;;;;9.13;6.85;;;18.80;99.90;;;;;;5028728;28;20092;-93
2022/07/31 06:13:12;;;;;;;8.80;6.45;;;18.70;99.90;;;;;;5010197;28;20041;-93
2022/07/31 06:15:38;;;;;;;9.25;6.78;;;18.80;99.90;;;;;;5011171;28;20041;-94
2022/07/31 06:18:04;;;;;;;9.05;6.90;;;18.80;99.90;;;;;;5008164;28;20047;-93
2022/07/31 06:20:30;;;;;;;11.52;6.80;;;18.80;99.90;;;;;;4992662;28;20037;-93
2022/07/31 06:22:55;;;;;;;9.93;6.90;;;18.90;99.90;;;;;;5009251;28;20198;-93
2022/07/31 06:25:21;;;;;;;9.32;7.30;;;18.90;99.90;;;;;;5010463;28;20080;-94
2022/07/31 06:27:46;;;;;;;12.20;7.07;;;18.90;99.90;;;;;;5004556;28;20041;-92
2022/07/31 06:30:14;;;;;;;10.43;7.25;;;18.90;99.90;;;;;;4991174;28;20073;-92
2022/07/31 06:32:39;;;;;;;9.65;6.85;;;18.90;99.90;;;;;;5016466;28;20041;-94
2022/07/31 06:35:06;;;;;;;9.25;7.10;;;19.00;99.90;;;;;;4995424;28;20048;-93
2022/07/31 06:37:32;;;;;;;10.05;7.53;;;19.00;99.90;;;;;;5016441;28;20060;-93
2022/07/31 06:39:58;;;;;;;9.82;7.30;;;19.10;99.90;;;;;;5022146;28;20042;-93
2022/07/31 06:42:24;;;;;;;9.80;7.25;;;19.10;99.90;;;;;;4999886;28;20072;-92
2022/07/31 06:44:51;;;;;;;9.82;7.25;;;19.20;99.90;;;;;;5010686;28;20170;-93
2022/07/31 06:47:24;;;;;;;10.00;7.65;;;19.20;99.90;;;;;;4978409;28;20041;-93
2022/07/31 06:49:50;;;;;;;10.77;7.10;;;19.40;99.90;;;;;;4989036;28;20049;-94
2022/07/31 06:52:17;;;;;;;9.05;7.07;;;19.40;99.90;;;;;;4982065;28;20042;-92
2022/07/31 06:54:46;;;;;;;10.75;7.32;;;19.50;99.90;;;;;;4991619;28;20140;-93
2022/07/31 06:57:12;;;;;;;11.93;7.57;;;19.50;99.90;;;;;;4996415;28;20050;-92
2022/07/31 06:59:38;;;;;;;9.10;7.28;;;19.50;99.90;;;;;;4988355;28;20399;-94
2022/07/31 07:02:04;;;;;;;10.45;7.63;;;19.60;99.90;;;;;;4989582;28;20045;-93
2022/07/31 07:04:30;;;;;;;10.90;7.40;;;19.60;99.90;;;;;;4976193;28;20132;-95
2022/07/31 07:33:47;;;;;;;10.07;7.60;;;19.90;99.90;;;;;;5762853;23;20107;-96
2022/07/31 07:36:16;;;;;;;11.32;8.35;;;19.90;99.90;;;;;;5277070;23;20048;-95
2022/07/31 07:49:05;;;;;;;10.20;8.95;;;20.20;99.90;;;;;;2509795;22;21584;-96
2022/07/31 07:51:31;;;;;;;12.13;9.40;;;20.20;99.90;;;;;;5023159;28;20079;-94
2022/07/31 07:53:56;;;;;;;11.30;8.80;;;20.30;99.90;;;;;;4993347;28;20038;-92
2022/07/31 07:56:23;;;;;;;11.40;9.40;;;20.40;99.90;;;;;;5001873;28;20493;-95
2022/07/31 07:58:49;;;;;;;11.35;9.52;;;20.40;99.90;;;;;;5042272;28;20037;-93
2022/07/31 08:01:15;;;;;;;12.38;9.43;;;20.60;99.90;;;;;;5020429;28;20049;-93
2022/07/31 08:03:41;;;;;;;11.15;9.57;;;20.50;99.90;;;;;;5035325;28;20049;-92
2022/07/31 08:06:06;;;;;;;13.93;9.55;;;20.60;99.90;;;;;;5017527;28;20045;-92
2022/07/31 08:08:32;;;;;;;12.18;9.73;;;20.70;99.90;;;;;;5045885;28;20041;-93
2022/07/31 08:10:59;;;;;;;12.73;9.73;;;20.70;99.90;;;;;;5004600;28;20108;-93
2022/07/31 08:13:25;;;;;;;12.73;9.27;;;20.70;99.90;;;;;;5000815;28;20069;-92
2022/07/31 08:15:51;;;;;;;13.27;9.85;;;20.70;99.90;;;;;;4994369;28;20084;-93
2022/07/31 08:18:16;;;;;;;11.40;10.20;;;20.80;99.90;;;;;;4997168;28;20395;-94
2022/07/31 08:20:42;;;;;;;11.95;10.50;;;20.80;99.90;;;;;;5017723;28;20076;-94
2022/07/31 08:23:08;;;;;;;13.80;10.48;;;20.90;99.90;;;;;;4996412;28;20049;-94
2022/07/31 08:25:33;;;;;;;13.68;10.63;;;20.90;99.90;;;;;;5033654;28;20475;-94
2022/07/31 08:27:59;;;;;;;12.48;11.13;;;20.90;99.90;;;;;;5032905;28;20532;-94
2022/07/31 08:30:25;;;;;;;12.98;10.82;;;21.00;99.90;;;;;;5008734;28;20053;-94
2022/07/31 08:32:50;;;;;;;13.05;10.73;;;21.10;99.90;;;;;;5015989;28;20041;-94
2022/07/31 08:35:16;;;;;;;13.00;11.10;;;21.20;99.90;;;;;;4999000;28;20080;-94
2022/07/31 08:37:42;;;;;;;13.10;10.80;;;21.10;99.90;;;;;;5039234;28;20033;-94
2022/07/31 08:40:08;;;;;;;13.70;10.40;;;21.20;99.90;;;;;;5019890;28;20049;-93
2022/07/31 08:42:36;;;;;;;12.10;10.82;;;21.20;99.90;;;;;;5011610;28;20052;-93
2022/07/31 08:45:05;;;;;;;13.55;11.52;;;21.30;99.90;;;;;;5030312;28;20057;-94
2022/07/31 08:47:33;;;;;;;13.57;10.57;;;21.40;99.90;;;;;;5018837;28;20080;-93
2022/07/31 08:50:00;;;;;;;11.10;9.88;;;21.40;99.90;;;;;;5016373;28;20057;-94
2022/07/31 08:52:31;;;;;;;11.70;9.60;;;21.40;99.90;;;;;;5041671;28;20052;-94
2022/07/31 08:54:58;;;;;;;13.35;10.00;;;21.40;99.90;;;;;;4997103;28;20041;-95
2022/07/31 08:57:25;;;;;;;12.68;9.98;;;21.40;99.90;;;;;;4998221;28;20049;-96
2022/07/31 08:59:53;;;;;;;11.20;9.30;;;21.30;99.90;;;;;;5008230;28;20042;-95
2022/07/31 09:02:22;;;;;;;11.20;8.68;;;21.30;99.90;;;;;;5010846;28;20056;-96
2022/07/31 09:04:48;;;;;;;13.35;9.65;;;21.30;99.90;;;;;;5017847;28;20045;-96
2022/07/31 09:07:14;;;;;;;12.52;9.45;;;21.20;99.90;;;;;;5012461;28;20077;-95
2022/07/31 09:09:44;;;;;;;10.40;8.63;;;21.10;99.90;;;;;;5033950;28;20356;-94
2022/07/31 09:12:11;;;;;;;11.68;8.73;;;21.10;99.90;;;;;;5013273;28;20054;-95
2022/07/31 09:14:36;;;;;;;11.30;9.35;;;21.20;99.90;;;;;;5014313;28;20132;-95
2022/07/31 09:17:03;;;;;;;13.60;10.18;;;21.10;99.90;;;;;;4995325;28;20688;-94
2022/07/31 09:19:40;;;;;;;14.65;10.82;;;21.00;99.90;;;;;;5040636;28;20041;-95
2022/07/31 09:22:06;;;;;;;12.85;10.07;;;20.90;99.90;;;;;;5038637;28;20038;-94
2022/07/31 09:24:48;;;;;;;13.25;10.20;;;21.00;99.90;;;;;;4996973;28;20068;-94
2022/07/31 09:27:16;;;;;;;13.30;10.05;;;21.00;99.90;;;;;;4992588;28;20497;-94
2022/07/31 09:29:44;;;;;;;12.68;10.50;;;20.90;99.90;;;;;;5009417;28;20512;-94
2022/07/31 09:32:15;;;;;;;12.98;10.20;;;20.90;99.90;;;;;;5012467;28;20053;-93
2022/07/31 09:34:43;;;;;;;13.98;10.88;;;20.80;99.90;;;;;;5012712;28;20065;-93
2022/07/31 09:37:19;;;;;;;13.02;10.80;;;20.80;99.90;;;;;;4992964;28;20053;-93
2022/07/31 09:39:50;;;;;;;13.13;11.82;;;20.80;99.90;;;;;;5007356;28;20053;-93
2022/07/31 09:42:16;;;;;;;;;;;20.80;99.90;;;;;;5012173;28;20041;-94
2022/07/31 09:44:43;;;;;;;13.43;11.60;;;20.60;99.90;;;;;;5008550;28;19927;-94
2022/07/31 09:47:27;;;;;;;13.32;12.02;;;20.70;99.90;;;;;;4995872;28;20065;-94
2022/07/31 09:49:54;;;;;;;15.75;11.98;;;20.70;99.90;;;;;;4996430;28;20053;-94
2022/07/31 09:52:20;;;;;;;13.52;11.88;;;20.70;99.90;;;;;;4996049;28;20042;-92
2022/07/31 09:54:46;;;;;;;15.25;12.88;;;20.80;99.90;;;;;;5027046;28;20049;-91
2022/07/31 09:57:13;;;;;;;14.85;12.02;;;20.80;99.90;;;;;;5020932;28;20421;-92
2022/07/31 09:59:39;;;;;;;13.32;11.85;;;20.90;99.90;;;;;;5005225;28;20037;-92
2022/07/31 10:02:07;;;;;;;13.18;11.82;;;20.90;99.90;;;;;;5001595;28;20046;-93
2022/07/31 10:04:32;;;;;;;13.75;12.30;;;20.90;99.90;;;;;;5011304;28;20042;-93
2022/07/31 10:06:59;;;;;;;14.50;12.52;;;20.90;99.90;;;;;;5003956;28;20045;-93
2022/07/31 10:09:27;;;;;;;13.75;12.25;;;20.90;99.90;;;;;;4986117;28;20042;-92
2022/07/31 10:11:56;;;;;;;13.63;12.15;;;20.80;99.90;;;;;;4993523;28;20076;-91
2022/07/31 10:14:28;;;;;;;14.00;12.57;;;20.70;99.90;;;;;;5029941;28;20045;-92
2022/07/31 10:16:57;;;;;;;14.02;12.27;;;20.70;99.90;;;;;;5021871;28;20053;-92
2022/07/31 10:19:30;;;;;;;14.20;12.70;;;20.80;99.90;;;;;;5010810;28;20140;-92
2022/07/31 10:22:00;;;;;;;13.48;12.18;;;20.90;99.90;;;;;;4986429;28;20046;-92
2022/07/31 10:24:41;;;;;;;14.02;12.52;;;21.00;99.90;;;;;;5010273;28;20048;-91
2022/07/31 10:27:08;;;;;;;13.93;12.52;;;20.90;99.90;;;;;;5002271;28;20053;-92
2022/07/31 10:29:36;;;;;;;16.42;13.13;;;21.10;99.90;;;;;;4996650;28;20045;-92
2022/07/31 10:32:02;;;;;;;14.15;12.70;;;21.10;99.90;;;;;;4992965;28;20044;-94
2022/07/31 10:34:28;;;;;;;14.38;12.88;;;21.10;99.90;;;;;;4991435;28;20037;-92
2022/07/31 10:37:00;;;;;;;14.55;12.48;;;21.10;99.90;;;;;;4990307;28;20706;-92
2022/07/31 10:39:50;;;;;;;14.52;12.50;;;21.10;99.90;;;;;;5007989;28;20049;-91
2022/07/31 10:42:28;;;;;;;14.70;13.05;;;21.10;99.90;;;;;;5010199;28;20048;-92
2022/07/31 10:45:03;;;;;;;14.95;12.77;;;21.10;99.90;;;;;;5007693;28;20053;-92
2022/07/31 10:47:28;;;;;;;15.13;13.52;;;21.10;99.90;;;;;;5008035;28;20052;-91
2022/07/31 10:49:54;;;;;;;15.27;13.50;;;21.10;99.90;;;;;;5008186;28;20050;-92
2022/07/31 10:52:34;;;;;;;15.75;13.30;;;21.10;99.90;;;;;;5032211;28;20418;-92
2022/07/31 10:55:18;;;;;;;15.70;14.10;;;21.10;99.90;;;;;;5025271;28;20042;-92
2022/07/31 10:57:44;;;;;;;14.68;12.98;;;21.20;99.90;;;;;;5010245;28;20049;-92
2022/07/31 11:00:11;;;;;;;14.80;13.15;;;21.30;99.90;;;;;;5012556;28;20088;-93
2022/07/31 11:02:36;;;;;;;14.65;13.23;;;21.30;99.90;;;;;;5003875;28;20065;-92
2022/07/31 11:05:24;;;;;;;16.17;14.57;;;21.30;99.90;;;;;;5007955;28;20080;-93
2022/07/31 11:08:04;;;;;;;15.10;13.50;;;21.30;99.90;;;;;;5009055;28;20133;-94
2022/07/31 11:10:47;;;;;;;15.63;14.02;;;21.20;99.90;;;;;;5010571;28;20048;-91
2022/07/31 11:13:14;;;;;;;15.57;13.90;;;21.20;99.90;;;;;;5009045;28;20053;-92
2022/07/31 11:15:39;;;;;;;16.42;14.68;;;21.20;99.90;;;;;;5007808;28;20041;-91
2022/07/31 11:18:21;;;;;;;16.38;14.70;;;21.00;99.90;;;;;;5011110;28;20409;-93
2022/07/31 11:21:02;;;;;;;16.50;14.80;;;21.00;99.90;;;;;;5001596;28;20186;-92
2022/07/31 11:23:28;;;;;;;;;;;21.00;99.90;;;;;;5033412;28;20041;-91
2022/07/31 11:26:10;;;;;;;16.85;14.77;;;20.90;99.90;;;;;;4998625;28;20051;-92
2022/07/31 11:28:36;;;;;;;16.98;15.18;;;20.90;99.90;;;;;;4993037;28;20409;-92
2022/07/31 11:31:06;;;;;;;17.73;16.00;;;20.90;99.90;;;;;;5011280;28;20347;-93
2022/07/31 11:33:41;;;;;;;18.47;16.57;;;21.00;99.90;;;;;;5013494;28;20136;-92
2022/07/31 11:36:15;;;;;;;18.05;16.15;;;20.90;99.90;;;;;;5029389;28;20454;-91
2022/07/31 11:38:43;;;;;;;18.60;16.60;;;20.80;99.90;;;;;;5018407;28;20045;-90
2022/07/31 11:41:09;;;;;;;19.88;17.77;;;20.70;99.90;;;;;;5011042;28;20029;-92
2022/07/31 11:43:36;;;;;;;20.08;17.85;;;20.60;99.90;;;;;;5002027;28;20143;-91
2022/07/31 11:46:03;;;;;;;20.52;18.45;;;20.60;99.90;;;;;;5013877;28;20599;-92
2022/07/31 11:48:31;;;;;;;20.40;18.40;;;20.50;99.90;;;;;;5045753;28;20078;-91
2022/07/31 11:50:58;;;;;;;21.23;19.00;;;20.40;99.90;;;;;;5035496;28;20053;-92
2022/07/31 11:53:24;;;;;;;22.05;19.65;;;20.30;99.90;;;;;;5015818;28;20111;-92
2022/07/31 11:55:56;;;;;;;22.38;20.02;;;20.20;99.90;;;;;;5035331;28;20053;-91
2022/07/31 11:58:23;;;;;;;22.13;19.83;;;20.10;99.90;;;;;;5015673;28;20434;-91
2022/07/31 12:00:50;;;;;;;22.75;20.45;;;20.00;99.90;;;;;;5014291;28;20124;-90
2022/07/31 12:03:17;;;;;;;25.75;21.50;;;20.00;99.90;;;;;;5034583;28;20089;-91
2022/07/31 12:05:48;;;;;;;24.45;21.95;;;19.90;99.90;;;;;;5018665;28;20053;-91
2022/07/31 12:08:14;;;;;;;24.10;21.60;;;19.90;99.90;;;;;;5015385;28;20052;-90
2022/07/31 12:10:40;;;;;;;25.13;22.48;;;20.00;99.90;;;;;;4999718;28;20068;-92
2022/07/31 12:13:17;;;;;;;24.95;22.10;;;19.90;99.90;;;;;;5003812;28;21217;-92
2022/07/31 12:15:59;;;;;;;24.67;22.17;;;19.90;99.90;;;;;;5011318;28;20060;-93
2022/07/31 12:18:27;;;;;;;25.90;23.33;;;19.80;99.90;;;;;;5013430;28;20041;-91
2022/07/31 12:21:01;;;;;;;24.90;22.40;;;19.90;99.90;;;;;;4995034;28;20431;-92
2022/07/31 12:23:40;;;;;;;26.38;23.65;;;19.80;99.90;;;;;;4996393;28;20102;-93
2022/07/31 12:26:09;;;;;;;26.58;23.88;;;19.90;99.90;;;;;;5000224;28;20136;-92
2022/07/31 12:28:35;;;;;;;27.40;24.63;;;19.90;99.90;;;;;;4998198;28;20049;-92
2022/07/31 12:31:00;;;;;;;27.70;25.00;;;19.90;99.90;;;;;;5021882;28;20049;-92
2022/07/31 12:33:26;;;;;;;27.70;24.77;;;19.90;99.90;;;;;;5010762;28;20077;-91
2022/07/31 12:35:53;;;;;;;28.77;25.77;;;19.90;99.90;;;;;;5004920;28;20222;-91
2022/07/31 12:38:26;;;;;;;29.15;26.02;;;19.90;99.90;;;;;;5001690;28;20041;-91
2022/07/31 12:41:04;;;;;;;29.98;26.95;;;20.00;99.90;;;;;;5007887;28;20053;-94
2022/07/31 12:43:31;;;;;;;30.00;26.95;;;20.00;99.90;;;;;;5040495;28;20124;-94
2022/07/31 12:45:59;;;;;;;29.73;26.63;;;20.10;99.90;;;;;;5015466;28;20558;-92
2022/07/31 12:48:26;;;;;;;29.67;26.60;;;20.20;99.90;;;;;;5002800;28;20038;-94
2022/07/31 12:50:51;;;;;;;31.25;28.02;;;20.20;99.90;;;;;;5005839;28;20056;-89
2022/07/31 12:53:17;;;;;;;30.85;27.67;;;20.10;99.90;;;;;;5010194;28;20449;-89
2022/07/31 12:55:43;;;;;;;30.98;27.83;;;20.10;99.90;;;;;;5016421;28;20049;-89
2022/07/31 12:58:09;;;;;;;30.65;27.55;;;20.00;99.90;;;;;;5000025;28;20510;-88
2022/07/31 13:00:34;;;;;;;31.33;28.13;;;20.00;99.90;;;;;;5016147;28;20041;-89
2022/07/31 13:03:00;;;;;;;31.17;28.08;;;20.00;99.90;;;;;;5010082;28;20383;-89
2022/07/31 13:05:26;;;;;;;31.40;28.30;;;20.00;99.90;;;;;;5008112;28;20488;-88
2022/07/31 13:07:52;;;;;;;30.45;27.35;;;20.00;99.90;;;;;;5012577;28;20134;-89
2022/07/31 13:10:19;;;;;;;30.75;27.65;;;20.00;99.90;;;;;;5013137;28;20120;-89
2022/07/31 13:12:49;;;;;;;31.25;28.00;;;20.10;99.90;;;;;;4997146;28;20052;-89
2022/07/31 13:15:16;;;;;;;29.63;26.52;;;20.00;99.90;;;;;;5009229;28;20045;-89
2022/07/31 13:17:42;;;;;;;32.33;29.05;;;20.00;99.90;;;;;;5013611;28;20283;-89